sensor_id;sensor_type;location;lat;lon;timestamp;pressure;altitude;pressure_sealevel;temperature;humidity
15634;BME280;14654;48.898;8.308;2022-11-02T00:02:11;100859.94;;;9.37;100.00
15634;BME280;14654;48.898;8.308;2022-11-02T00:04:37;100864.22;;;9.35;100.00
15634;BME280;14654;48.898;8.308;2022-11-02T00:07:02;100849.56;;;9.34;100.00
15634;BME280;14654;48.898;8.308;2022-11-02T00:09:27;100847.00;;;9.34;100.00
15634;BME280;14654;48.898;8.308;2022-11-02T00:11:53;100851.28;;;9.33;100.00
15634;BME280;14654;48.898;8.308;2022-11-02T00:14:18;100845.25;;;9.33;100.00
15634;BME280;14654;48.898;8.308;2022-11-02T00:16:43;100846.97;;;9.30;100.00
15634;BME280;14654;48.898;8.308;2022-11-02T00:19:09;100839.22;;;9.29;100.00
15634;BME280;14654;48.898;8.308;2022-11-02T00:21:35;100849.53;;;9.27;100.00
15634;BME280;14654;48.898;8.308;2022-11-02T00:24:02;100851.25;;;9.27;100.00
15634;BME280;14654;48.898;8.308;2022-11-02T00:26:28;100844.34;;;9.24;100.00
15634;BME280;14654;48.898;8.308;2022-11-02T00:28:57;100849.50;;;9.23;100.00
15634;BME280;14654;48.898;8.308;2022-11-02T00:31:22;100850.34;;;9.23;100.00
15634;BME280;14654;48.898;8.308;2022-11-02T00:33:47;100840.91;;;9.22;100.00
15634;BME280;14654;48.898;8.308;2022-11-02T00:36:13;100849.50;;;9.21;100.00
15634;BME280;14654;48.898;8.308;2022-11-02T00:38:38;100850.34;;;9.22;100.00
15634;BME280;14654;48.898;8.308;2022-11-02T00:41:04;100847.78;;;9.23;100.00
15634;BME280;14654;48.898;8.308;2022-11-02T00:43:29;100851.22;;;9.21;100.00
15634;BME280;14654;48.898;8.308;2022-11-02T00:45:55;100852.94;;;9.22;100.00
15634;BME280;14654;48.898;8.308;2022-11-02T00:48:21;100856.38;;;9.19;100.00
15634;BME280;14654;48.898;8.308;2022-11-02T00:50:46;100853.81;;;9.19;100.00
15634;BME280;14654;48.898;8.308;2022-11-02T00:53:11;100850.34;;;9.19;100.00
15634;BME280;14654;48.898;8.308;2022-11-02T00:55:37;100856.34;;;9.18;100.00
15634;BME280;14654;48.898;8.308;2022-11-02T00:58:02;100848.59;;;9.18;100.00
15634;BME280;14654;48.898;8.308;2022-11-02T01:00:27;100858.09;;;9.17;100.00
15634;BME280;14654;48.898;8.308;2022-11-02T01:02:53;100855.50;;;9.19;100.00
15634;BME280;14654;48.898;8.308;2022-11-02T01:05:18;100852.06;;;9.20;100.00
15634;BME280;14654;48.898;8.308;2022-11-02T01:07:44;100852.09;;;9.23;100.00
15634;BME280;14654;48.898;8.308;2022-11-02T01:10:10;100855.53;;;9.25;100.00
15634;BME280;14654;48.898;8.308;2022-11-02T01:12:37;100845.22;;;9.25;100.00
15634;BME280;14654;48.898;8.308;2022-11-02T01:15:05;100843.50;;;9.28;100.00
15634;BME280;14654;48.898;8.308;2022-11-02T01:17:30;100851.28;;;9.32;100.00
15634;BME280;14654;48.898;8.308;2022-11-02T01:19:56;100848.69;;;9.33;100.00
15634;BME280;14654;48.898;8.308;2022-11-02T01:22:21;100847.00;;;9.37;100.00
15634;BME280;14654;48.898;8.308;2022-11-02T01:24:47;100840.09;;;9.39;100.00
15634;BME280;14654;48.898;8.308;2022-11-02T01:27:12;100836.69;;;9.41;100.00
15634;BME280;14654;48.898;8.308;2022-11-02T01:29:37;100834.13;;;9.44;100.00
15634;BME280;14654;48.898;8.308;2022-11-02T01:32:03;100827.25;;;9.50;100.00
15634;BME280;14654;48.898;8.308;2022-11-02T01:34:28;100824.69;;;9.57;100.00
15634;BME280;14654;48.898;8.308;2022-11-02T01:36:54;100826.47;;;9.65;100.00
15634;BME280;14654;48.898;8.308;2022-11-02T01:39:19;100825.59;;;9.70;100.00
15634;BME280;14654;48.898;8.308;2022-11-02T01:41:44;100817.00;;;9.77;100.00
15634;BME280;14654;48.898;8.308;2022-11-02T01:44:32;100820.47;;;9.84;100.00
15634;BME280;14654;48.898;8.308;2022-11-02T01:49:26;100816.16;;;9.91;100.00
15634;BME280;14654;48.898;8.308;2022-11-02T01:52:05;100808.44;;;9.94;100.00
15634;BME280;14654;48.898;8.308;2022-11-02T01:54:36;100813.59;;;9.97;100.00
15634;BME280;14654;48.898;8.308;2022-11-02T01:57:05;100811.00;;;9.99;100.00
15634;BME280;14654;48.898;8.308;2022-11-02T01:59:48;100811.91;;;10.02;100.00
15634;BME280;14654;48.898;8.308;2022-11-02T02:02:18;100807.59;;;10.04;100.00
15634;BME280;14654;48.898;8.308;2022-11-02T02:04:48;100803.28;;;10.06;100.00
15634;BME280;14654;48.898;8.308;2022-11-02T02:07:15;100809.31;;;10.09;100.00
15634;BME280;14654;48.898;8.308;2022-11-02T02:09:40;100800.69;;;10.10;100.00
15634;BME280;14654;48.898;8.308;2022-11-02T02:12:06;100800.69;;;10.13;100.00
15634;BME280;14654;48.898;8.308;2022-11-02T02:14:32;100805.00;;;10.15;100.00
15634;BME280;14654;48.898;8.308;2022-11-02T02:17:20;100804.16;;;10.18;100.00
15634;BME280;14654;48.898;8.308;2022-11-02T02:31:14;100798.97;;;10.32;100.00
15634;BME280;14654;48.898;8.308;2022-11-02T02:36:28;100789.50;;;10.37;100.00
15634;BME280;14654;48.898;8.308;2022-11-02T02:41:38;100778.31;;;10.46;100.00
15634;BME280;14654;48.898;8.308;2022-11-02T02:44:09;100794.72;;;10.48;100.00
15634;BME280;14654;48.898;8.308;2022-11-02T02:47:03;100789.53;;;10.49;100.00
15634;BME280;14654;48.898;8.308;2022-11-02T02:49:40;100797.31;;;10.51;100.00
15634;BME280;14654;48.898;8.308;2022-11-02T02:52:08;100788.66;;;10.50;100.00
15634;BME280;14654;48.898;8.308;2022-11-02T02:54:37;100792.13;;;10.51;100.00
15634;BME280;14654;48.898;8.308;2022-11-02T02:57:10;100802.47;;;10.52;100.00
15634;BME280;14654;48.898;8.308;2022-11-02T02:59:44;100792.13;;;10.52;100.00
15634;BME280;14654;48.898;8.308;2022-11-02T03:02:16;100787.78;;;10.53;100.00
15634;BME280;14654;48.898;8.308;2022-11-02T03:04:43;100781.75;;;10.54;100.00
15634;BME280;14654;48.898;8.308;2022-11-02T03:07:11;100788.69;;;10.54;100.00
15634;BME280;14654;48.898;8.308;2022-11-02T03:10:04;100784.38;;;10.52;100.00
15634;BME280;14654;48.898;8.308;2022-11-02T03:12:49;100789.56;;;10.51;100.00
15634;BME280;14654;48.898;8.308;2022-11-02T03:15:41;100790.41;;;10.51;100.00
15634;BME280;14654;48.898;8.308;2022-11-02T03:21:27;100797.28;;;10.49;100.00
15634;BME280;14654;48.898;8.308;2022-11-02T03:26:45;100803.34;;;10.47;100.00
15634;BME280;14654;48.898;8.308;2022-11-02T03:29:17;100798.16;;;10.44;100.00
15634;BME280;14654;48.898;8.308;2022-11-02T03:31:53;100807.66;;;10.42;100.00
15634;BME280;14654;48.898;8.308;2022-11-02T03:34:42;100805.06;;;10.40;100.00
15634;BME280;14654;48.898;8.308;2022-11-02T03:37:20;100817.09;;;10.36;100.00
15634;BME280;14654;48.898;8.308;2022-11-02T03:39:49;100821.41;;;10.33;100.00
15634;BME280;14654;48.898;8.308;2022-11-02T03:42:20;100814.50;;;10.29;100.00
15634;BME280;14654;48.898;8.308;2022-11-02T03:44:49;100820.56;;;10.25;100.00
15634;BME280;14654;48.898;8.308;2022-11-02T03:47:17;100826.56;;;10.22;100.00
15634;BME280;14654;48.898;8.308;2022-11-02T03:49:45;100829.16;;;10.17;100.00
15634;BME280;14654;48.898;8.308;2022-11-02T03:52:17;100825.72;;;10.18;100.00
15634;BME280;14654;48.898;8.308;2022-11-02T03:57:22;100825.72;;;10.17;100.00
15634;BME280;14654;48.898;8.308;2022-11-02T03:59:49;100824.84;;;10.15;100.00
15634;BME280;14654;48.898;8.308;2022-11-02T04:02:15;100827.44;;;10.12;100.00
15634;BME280;14654;48.898;8.308;2022-11-02T04:04:50;100830.00;;;10.12;100.00
15634;BME280;14654;48.898;8.308;2022-11-02T04:07:22;100825.72;;;10.12;100.00
15634;BME280;14654;48.898;8.308;2022-11-02T04:09:49;100824.00;;;10.11;100.00
15634;BME280;14654;48.898;8.308;2022-11-02T04:12:14;100829.16;;;10.11;100.00
15634;BME280;14654;48.898;8.308;2022-11-02T04:14:58;100829.13;;;10.10;100.00
15634;BME280;14654;48.898;8.308;2022-11-02T04:17:25;100833.47;;;10.09;100.00
15634;BME280;14654;48.898;8.308;2022-11-02T04:20:09;100834.31;;;10.10;100.00
15634;BME280;14654;48.898;8.308;2022-11-02T04:22:35;100836.91;;;10.13;100.00
15634;BME280;14654;48.898;8.308;2022-11-02T04:25:19;100838.63;;;10.15;100.00
15634;BME280;14654;48.898;8.308;2022-11-02T04:27:50;100845.53;;;10.15;100.00
15634;BME280;14654;48.898;8.308;2022-11-02T04:30:17;100860.19;;;10.16;100.00
15634;BME280;14654;48.898;8.308;2022-11-02T04:32:45;100861.94;;;10.17;100.00
15634;BME280;14654;48.898;8.308;2022-11-02T04:35:30;100867.13;;;10.25;100.00
15634;BME280;14654;48.898;8.308;2022-11-02T04:37:57;100874.88;;;10.31;100.00
15634;BME280;14654;48.898;8.308;2022-11-02T04:40:41;100882.72;;;10.43;100.00
15634;BME280;14654;48.898;8.308;2022-11-02T04:43:07;100888.75;;;10.51;100.00
15634;BME280;14654;48.898;8.308;2022-11-02T04:45:32;100887.88;;;10.62;100.00
15634;BME280;14654;48.898;8.308;2022-11-02T04:48:02;100902.53;;;10.71;100.00
15634;BME280;14654;48.898;8.308;2022-11-02T04:50:28;100906.03;;;10.79;100.00
15634;BME280;14654;48.898;8.308;2022-11-02T04:52:57;100903.44;;;10.87;100.00
15634;BME280;14654;48.898;8.308;2022-11-02T04:55:23;100911.19;;;10.96;100.00
15634;BME280;14654;48.898;8.308;2022-11-02T04:57:49;100911.19;;;11.04;100.00
15634;BME280;14654;48.898;8.308;2022-11-02T05:00:14;100918.09;;;11.11;100.00
15634;BME280;14654;48.898;8.308;2022-11-02T05:02:40;100919.81;;;11.17;100.00
15634;BME280;14654;48.898;8.308;2022-11-02T05:05:06;100920.66;;;11.25;100.00
15634;BME280;14654;48.898;8.308;2022-11-02T05:07:31;100924.09;;;11.32;100.00
15634;BME280;14654;48.898;8.308;2022-11-02T05:09:56;100920.63;;;11.37;100.00
15634;BME280;14654;48.898;8.308;2022-11-02T05:12:22;100917.16;;;11.43;100.00
15634;BME280;14654;48.898;8.308;2022-11-02T05:14:47;100914.56;;;11.46;100.00
15634;BME280;14654;48.898;8.308;2022-11-02T05:17:12;100912.81;;;11.48;100.00
15634;BME280;14654;48.898;8.308;2022-11-02T05:19:38;100908.50;;;11.52;100.00
15634;BME280;14654;48.898;8.308;2022-11-02T05:22:04;100926.66;;;11.53;100.00
15634;BME280;14654;48.898;8.308;2022-11-02T05:24:29;100927.50;;;11.54;100.00
15634;BME280;14654;48.898;8.308;2022-11-02T05:26:55;100923.19;;;11.54;100.00
15634;BME280;14654;48.898;8.308;2022-11-02T05:29:20;100936.13;;;11.56;100.00
15634;BME280;14654;48.898;8.308;2022-11-02T05:31:45;100943.06;;;11.55;100.00
15634;BME280;14654;48.898;8.308;2022-11-02T05:34:11;100947.38;;;11.56;100.00
15634;BME280;14654;48.898;8.308;2022-11-02T05:36:36;100945.63;;;11.58;100.00
15634;BME280;14654;48.898;8.308;2022-11-02T05:39:01;100950.81;;;11.60;100.00
15634;BME280;14654;48.898;8.308;2022-11-02T05:41:27;100956.00;;;11.62;100.00
15634;BME280;14654;48.898;8.308;2022-11-02T05:43:52;100962.91;;;11.63;100.00
15634;BME280;14654;48.898;8.308;2022-11-02T05:46:17;100954.25;;;11.67;100.00
15634;BME280;14654;48.898;8.308;2022-11-02T05:48:43;100961.16;;;11.66;100.00
15634;BME280;14654;48.898;8.308;2022-11-02T05:51:09;100961.19;;;11.65;100.00
15634;BME280;14654;48.898;8.308;2022-11-02T05:53:34;100943.91;;;11.62;100.00
15634;BME280;14654;48.898;8.308;2022-11-02T05:56:04;100946.50;;;11.62;100.00
15634;BME280;14654;48.898;8.308;2022-11-02T05:58:30;100953.41;;;11.58;100.00
15634;BME280;14654;48.898;8.308;2022-11-02T06:01:04;100969.84;;;11.54;100.00
15634;BME280;14654;48.898;8.308;2022-11-02T06:03:30;100964.66;;;11.48;100.00
15634;BME280;14654;48.898;8.308;2022-11-02T06:06:05;100968.97;;;11.43;100.00
15634;BME280;14654;48.898;8.308;2022-11-02T06:08:35;100974.19;;;11.40;100.00
15634;BME280;14654;48.898;8.308;2022-11-02T06:13:30;100982.81;;;11.37;100.00
15634;BME280;14654;48.898;8.308;2022-11-02T06:16:00;100998.38;;;11.39;100.00
15634;BME280;14654;48.898;8.308;2022-11-02T06:18:26;100995.78;;;11.39;100.00
15634;BME280;14654;48.898;8.308;2022-11-02T06:20:52;100997.50;;;11.41;100.00
15634;BME280;14654;48.898;8.308;2022-11-02T06:23:17;101002.69;;;11.40;100.00
15634;BME280;14654;48.898;8.308;2022-11-02T06:25:53;101007.88;;;11.40;100.00
15634;BME280;14654;48.898;8.308;2022-11-02T06:28:20;101004.44;;;11.38;100.00
15634;BME280;14654;48.898;8.308;2022-11-02T06:30:46;101007.88;;;11.38;100.00
15634;BME280;14654;48.898;8.308;2022-11-02T06:33:13;101013.91;;;11.37;100.00
15634;BME280;14654;48.898;8.308;2022-11-02T06:35:38;101013.94;;;11.34;100.00
15634;BME280;14654;48.898;8.308;2022-11-02T06:38:03;101016.53;;;11.31;100.00
15634;BME280;14654;48.898;8.308;2022-11-02T06:40:29;101022.56;;;11.25;100.00
15634;BME280;14654;48.898;8.308;2022-11-02T06:42:55;101031.22;;;11.21;100.00
15634;BME280;14654;48.898;8.308;2022-11-02T06:45:21;101033.78;;;11.18;100.00
15634;BME280;14654;48.898;8.308;2022-11-02T06:47:47;101039.81;;;11.14;100.00
15634;BME280;14654;48.898;8.308;2022-11-02T06:50:13;101040.69;;;11.11;100.00
15634;BME280;14654;48.898;8.308;2022-11-02T06:52:45;101040.69;;;11.13;100.00
15634;BME280;14654;48.898;8.308;2022-11-02T06:55:11;101048.44;;;11.13;100.00
15634;BME280;14654;48.898;8.308;2022-11-02T06:57:37;101050.19;;;11.12;100.00
15634;BME280;14654;48.898;8.308;2022-11-02T07:00:05;101048.44;;;11.13;100.00
15634;BME280;14654;48.898;8.308;2022-11-02T07:02:30;101051.06;;;11.15;100.00
15634;BME280;14654;48.898;8.308;2022-11-02T07:04:56;101054.53;;;11.17;100.00
15634;BME280;14654;48.898;8.308;2022-11-02T07:07:21;101065.75;;;11.20;100.00
15634;BME280;14654;48.898;8.308;2022-11-02T07:09:47;101059.69;;;11.26;100.00
15634;BME280;14654;48.898;8.308;2022-11-02T07:12:12;101057.09;;;11.31;100.00
15634;BME280;14654;48.898;8.308;2022-11-02T07:14:37;101064.00;;;11.36;100.00
15634;BME280;14654;48.898;8.308;2022-11-02T07:17:03;101069.22;;;11.46;100.00
15634;BME280;14654;48.898;8.308;2022-11-02T07:19:29;101070.09;;;11.55;100.00
15634;BME280;14654;48.898;8.308;2022-11-02T07:21:54;101073.53;;;11.62;100.00
15634;BME280;14654;48.898;8.308;2022-11-02T07:24:19;101072.66;;;11.69;100.00
15634;BME280;14654;48.898;8.308;2022-11-02T07:26:48;101071.78;;;11.77;100.00
15634;BME280;14654;48.898;8.308;2022-11-02T07:29:17;101076.09;;;11.82;100.00
15634;BME280;14654;48.898;8.308;2022-11-02T07:31:43;101078.69;;;11.84;100.00
15634;BME280;14654;48.898;8.308;2022-11-02T07:34:09;101081.28;;;11.87;100.00
15634;BME280;14654;48.898;8.308;2022-11-02T07:36:34;101089.03;;;11.88;100.00
15634;BME280;14654;48.898;8.308;2022-11-02T07:38:59;101090.78;;;11.89;100.00
15634;BME280;14654;48.898;8.308;2022-11-02T07:41:25;101100.28;;;11.90;100.00
15634;BME280;14654;48.898;8.308;2022-11-02T07:43:50;101091.63;;;11.88;100.00
15634;BME280;14654;48.898;8.308;2022-11-02T07:46:15;101102.88;;;11.87;100.00
15634;BME280;14654;48.898;8.308;2022-11-02T07:48:41;101103.75;;;11.88;100.00
15634;BME280;14654;48.898;8.308;2022-11-02T07:51:06;101106.34;;;11.93;100.00
15634;BME280;14654;48.898;8.308;2022-11-02T07:53:32;101110.66;;;11.97;100.00
15634;BME280;14654;48.898;8.308;2022-11-02T07:56:01;101107.22;;;12.04;100.00
15634;BME280;14654;48.898;8.308;2022-11-02T07:58:27;101108.06;;;12.11;100.00
15634;BME280;14654;48.898;8.308;2022-11-02T08:00:52;101113.25;;;12.17;100.00
15634;BME280;14654;48.898;8.308;2022-11-02T08:03:18;101109.78;;;12.21;100.00
15634;BME280;14654;48.898;8.308;2022-11-02T08:05:44;101114.94;;;12.27;100.00
15634;BME280;14654;48.898;8.308;2022-11-02T08:08:15;101114.97;;;12.32;100.00
15634;BME280;14654;48.898;8.308;2022-11-02T08:10:42;101121.84;;;12.36;100.00
15634;BME280;14654;48.898;8.308;2022-11-02T08:13:10;101125.28;;;12.41;100.00
15634;BME280;14654;48.898;8.308;2022-11-02T08:15:36;101127.88;;;12.44;100.00
15634;BME280;14654;48.898;8.308;2022-11-02T08:18:22;101120.94;;;12.51;100.00
15634;BME280;14654;48.898;8.308;2022-11-02T08:20:48;101128.69;;;12.57;100.00
15634;BME280;14654;48.898;8.308;2022-11-02T08:23:15;101125.19;;;12.66;100.00
15634;BME280;14654;48.898;8.308;2022-11-02T08:25:41;101132.97;;;12.71;100.00
15634;BME280;14654;48.898;8.308;2022-11-02T08:28:11;101132.06;;;12.79;100.00
15634;BME280;14654;48.898;8.308;2022-11-02T08:30:37;101130.31;;;12.88;100.00
15634;BME280;14654;48.898;8.308;2022-11-02T08:33:07;101131.97;;;12.95;100.00
15634;BME280;14654;48.898;8.308;2022-11-02T08:35:36;101137.16;;;13.04;100.00
15634;BME280;14654;48.898;8.308;2022-11-02T08:38:02;101130.13;;;13.17;100.00
15634;BME280;14654;48.898;8.308;2022-11-02T08:40:28;101126.56;;;13.32;100.00
15634;BME280;14654;48.898;8.308;2022-11-02T08:42:58;101130.81;;;13.47;100.00
15634;BME280;14654;48.898;8.308;2022-11-02T08:45:24;101135.06;;;13.62;100.00
15634;BME280;14654;48.898;8.308;2022-11-02T08:47:49;101126.28;;;13.74;100.00
15634;BME280;14654;48.898;8.308;2022-11-02T08:50:15;101135.75;;;13.84;100.00
15634;BME280;14654;48.898;8.308;2022-11-02T08:52:40;101140.84;;;13.95;100.00
15634;BME280;14654;48.898;8.308;2022-11-02T08:55:06;101137.28;;;14.06;100.00
15634;BME280;14654;48.898;8.308;2022-11-02T08:57:31;101136.34;;;14.13;100.00
15634;BME280;14654;48.898;8.308;2022-11-02T08:59:57;101143.19;;;14.23;100.00
15634;BME280;14654;48.898;8.308;2022-11-02T09:02:22;101144.81;;;14.30;100.00
15634;BME280;14654;48.898;8.308;2022-11-02T09:04:48;101141.31;;;14.35;100.00
15634;BME280;14654;48.898;8.308;2022-11-02T09:07:13;101136.09;;;14.35;100.00
15634;BME280;14654;48.898;8.308;2022-11-02T09:09:39;101143.94;;;14.33;100.00
15634;BME280;14654;48.898;8.308;2022-11-02T09:12:04;101136.16;;;14.30;100.00
15634;BME280;14654;48.898;8.308;2022-11-02T09:14:30;101138.81;;;14.24;100.00
15634;BME280;14654;48.898;8.308;2022-11-02T09:16:55;101144.06;;;14.19;100.00
15634;BME280;14654;48.898;8.308;2022-11-02T09:19:20;101142.41;;;14.13;100.00
15634;BME280;14654;48.898;8.308;2022-11-02T09:21:46;101142.47;;;14.09;100.00
15634;BME280;14654;48.898;8.308;2022-11-02T09:24:14;101142.47;;;14.06;100.00
15634;BME280;14654;48.898;8.308;2022-11-02T09:26:39;101140.78;;;14.03;100.00
15634;BME280;14654;48.898;8.308;2022-11-02T09:29:04;101146.84;;;14.02;100.00
15634;BME280;14654;48.898;8.308;2022-11-02T09:31:29;101148.56;;;14.05;100.00
15634;BME280;14654;48.898;8.308;2022-11-02T09:33:55;101153.69;;;14.12;100.00
15634;BME280;14654;48.898;8.308;2022-11-02T09:36:20;101155.38;;;14.20;100.00
15634;BME280;14654;48.898;8.308;2022-11-02T09:38:46;101149.19;;;14.30;100.00
15634;BME280;14654;48.898;8.308;2022-11-02T09:41:35;101155.13;;;14.43;100.00
15634;BME280;14654;48.898;8.308;2022-11-02T09:44:13;101151.47;;;14.59;100.00
15634;BME280;14654;48.898;8.308;2022-11-02T09:46:44;101147.03;;;14.69;100.00
15634;BME280;14654;48.898;8.308;2022-11-02T09:51:45;101164.97;;;14.94;100.00
15634;BME280;14654;48.898;8.308;2022-11-02T09:54:22;101160.56;;;14.98;100.00
15634;BME280;14654;48.898;8.308;2022-11-02T09:56:50;101164.88;;;15.00;100.00
15634;BME280;14654;48.898;8.308;2022-11-02T09:59:21;101158.66;;;15.11;100.00
15634;BME280;14654;48.898;8.308;2022-11-02T10:07:22;101164.84;;;15.61;100.00
15634;BME280;14654;48.898;8.308;2022-11-02T10:09:56;101165.97;;;15.45;100.00
15634;BME280;14654;48.898;8.308;2022-11-02T10:12:49;101161.88;;;15.30;100.00
15634;BME280;14654;48.898;8.308;2022-11-02T10:15:25;101155.94;;;15.18;100.00
15634;BME280;14654;48.898;8.308;2022-11-02T10:17:56;101149.00;;;15.16;100.00
15634;BME280;14654;48.898;8.308;2022-11-02T10:20:26;101144.50;;;15.29;100.00
15634;BME280;14654;48.898;8.308;2022-11-02T10:22:58;101148.75;;;15.34;100.00
15634;BME280;14654;48.898;8.308;2022-11-02T10:25:24;101148.78;;;15.33;100.00
15634;BME280;14654;48.898;8.308;2022-11-02T10:27:57;101147.06;;;15.32;99.88
15634;BME280;14654;48.898;8.308;2022-11-02T10:30:28;101144.34;;;15.38;99.53
15634;BME280;14654;48.898;8.308;2022-11-02T10:32:55;101151.94;;;15.53;99.23
15634;BME280;14654;48.898;8.308;2022-11-02T10:35:42;101152.66;;;15.65;98.90
15634;BME280;14654;48.898;8.308;2022-11-02T10:38:39;101158.47;;;15.81;98.33
15634;BME280;14654;48.898;8.308;2022-11-02T10:41:54;101162.66;;;15.93;98.00
15634;BME280;14654;48.898;8.308;2022-11-02T10:52:13;101153.63;;;16.11;96.54
15634;BME280;14654;48.898;8.308;2022-11-02T10:54:40;101159.69;;;16.13;96.86
15634;BME280;14654;48.898;8.308;2022-11-02T10:57:12;101163.13;;;16.13;96.10
15634;BME280;14654;48.898;8.308;2022-11-02T10:59:38;101159.69;;;16.11;96.10
15634;BME280;14654;48.898;8.308;2022-11-02T11:02:11;101155.94;;;16.26;95.65
15634;BME280;14654;48.898;8.308;2022-11-02T11:04:38;101151.38;;;16.39;95.06
15634;BME280;14654;48.898;8.308;2022-11-02T11:07:06;101147.41;;;16.62;93.37
15634;BME280;14654;48.898;8.308;2022-11-02T11:12:20;101130.44;;;17.24;89.81
15634;BME280;14654;48.898;8.308;2022-11-02T11:14:57;101122.94;;;17.46;89.08
15634;BME280;14654;48.898;8.308;2022-11-02T11:17:32;101126.00;;;17.62;87.89
15634;BME280;14654;48.898;8.308;2022-11-02T11:19:59;101124.91;;;17.73;87.74
15634;BME280;14654;48.898;8.308;2022-11-02T11:22:31;101121.97;;;17.85;87.54
15634;BME280;14654;48.898;8.308;2022-11-02T11:25:25;101127.78;;;17.96;87.13
15634;BME280;14654;48.898;8.308;2022-11-02T11:27:58;101123.13;;;18.08;85.73
15634;BME280;14654;48.898;8.308;2022-11-02T11:30:30;101118.91;;;18.04;85.79
15634;BME280;14654;48.898;8.308;2022-11-02T11:32:58;101119.28;;;17.87;85.88
15634;BME280;14654;48.898;8.308;2022-11-02T11:35:28;101115.53;;;17.64;86.40
15634;BME280;14654;48.898;8.308;2022-11-02T11:37:57;101118.13;;;17.28;87.07
15634;BME280;14654;48.898;8.308;2022-11-02T11:40:23;101118.91;;;16.92;87.84
15634;BME280;14654;48.898;8.308;2022-11-02T11:42:52;101116.09;;;16.60;88.90
15634;BME280;14654;48.898;8.308;2022-11-02T11:45:24;101110.50;;;16.35;89.38
15634;BME280;14654;48.898;8.308;2022-11-02T11:50:46;101106.66;;;16.09;90.09
15634;BME280;14654;48.898;8.308;2022-11-02T11:55:45;101098.47;;;15.79;91.36
15634;BME280;14654;48.898;8.308;2022-11-02T11:58:23;101107.97;;;15.85;91.40
15634;BME280;14654;48.898;8.308;2022-11-02T12:03:53;101094.34;;;16.16;90.56
15634;BME280;14654;48.898;8.308;2022-11-02T12:06:35;101079.38;;;16.24;89.64
15634;BME280;14654;48.898;8.308;2022-11-02T12:12:07;101072.59;;;16.58;89.22
15634;BME280;14654;48.898;8.308;2022-11-02T12:32:53;101059.88;;;17.89;84.69
15634;BME280;14654;48.898;8.308;2022-11-02T12:54:20;101039.97;;;17.50;83.96
15634;BME280;14654;48.898;8.308;2022-11-02T12:56:47;101034.69;;;17.17;84.49
15634;BME280;14654;48.898;8.308;2022-11-02T12:59:35;101033.88;;;16.75;84.81
15634;BME280;14654;48.898;8.308;2022-11-02T13:02:25;101030.31;;;16.40;85.93
15634;BME280;14654;48.898;8.308;2022-11-02T13:04:53;101039.16;;;16.33;86.33
15634;BME280;14654;48.898;8.308;2022-11-02T13:07:38;101033.03;;;16.34;86.70
15634;BME280;14654;48.898;8.308;2022-11-02T13:10:18;101032.00;;;16.43;86.71
15634;BME280;14654;48.898;8.308;2022-11-02T13:12:47;101024.78;;;16.54;86.56
15634;BME280;14654;48.898;8.308;2022-11-02T13:15:19;101013.97;;;16.70;86.22
15634;BME280;14654;48.898;8.308;2022-11-02T13:17:55;101022.47;;;16.80;86.39
15634;BME280;14654;48.898;8.308;2022-11-02T13:20:38;101019.09;;;16.74;86.11
15634;BME280;14654;48.898;8.308;2022-11-02T13:23:11;101007.00;;;16.70;86.33
15634;BME280;14654;48.898;8.308;2022-11-02T13:25:43;101013.03;;;16.72;86.87
15634;BME280;14654;48.898;8.308;2022-11-02T13:30:54;101016.59;;;16.70;86.78
15634;BME280;14654;48.898;8.308;2022-11-02T13:33:24;101014.97;;;16.64;87.04
15634;BME280;14654;48.898;8.308;2022-11-02T13:35:50;101011.69;;;16.56;87.66
15634;BME280;14654;48.898;8.308;2022-11-02T13:41:52;101022.53;;;16.36;88.71
15634;BME280;14654;48.898;8.308;2022-11-02T13:50:03;101007.50;;;16.05;90.29
15634;BME280;14654;48.898;8.308;2022-11-02T13:52:40;100995.44;;;15.99;90.63
15634;BME280;14654;48.898;8.308;2022-11-02T13:55:15;100999.09;;;15.92;91.01
15634;BME280;14654;48.898;8.308;2022-11-02T13:57:44;100997.44;;;15.84;91.38
15634;BME280;14654;48.898;8.308;2022-11-02T14:03:10;101003.91;;;15.65;91.26
15634;BME280;14654;48.898;8.308;2022-11-02T14:05:47;100999.72;;;15.56;91.36
15634;BME280;14654;48.898;8.308;2022-11-02T14:08:29;101005.97;;;15.46;91.31
15634;BME280;14654;48.898;8.308;2022-11-02T14:11:05;100997.41;;;15.39;91.85
15634;BME280;14654;48.898;8.308;2022-11-02T14:22:03;100985.78;;;15.08;92.51
15634;BME280;14654;48.898;8.308;2022-11-02T14:48:51;100972.63;;;14.58;95.18
15634;BME280;14654;48.898;8.308;2022-11-02T14:51:30;100975.25;;;14.54;95.16
15634;BME280;14654;48.898;8.308;2022-11-02T14:54:00;100969.25;;;14.50;95.03
15634;BME280;14654;48.898;8.308;2022-11-02T14:56:50;100961.53;;;14.44;95.18
15634;BME280;14654;48.898;8.308;2022-11-02T15:01:55;100958.19;;;14.34;95.55
15634;BME280;14654;48.898;8.308;2022-11-02T15:04:23;100953.88;;;14.31;95.90
15634;BME280;14654;48.898;8.308;2022-11-02T15:07:00;100948.75;;;14.27;96.19
15634;BME280;14654;48.898;8.308;2022-11-02T15:22:38;100931.88;;;13.90;98.19
15634;BME280;14654;48.898;8.308;2022-11-02T15:25:12;100931.94;;;13.82;98.81
15634;BME280;14654;48.898;8.308;2022-11-02T15:27:41;100937.25;;;13.75;98.79
15634;BME280;14654;48.898;8.308;2022-11-02T15:30:13;100948.63;;;13.67;99.27
15634;BME280;14654;48.898;8.308;2022-11-02T15:32:43;100943.50;;;13.58;99.36
15634;BME280;14654;48.898;8.308;2022-11-02T15:35:21;100944.47;;;13.49;99.69
15634;BME280;14654;48.898;8.308;2022-11-02T15:37:51;100951.50;;;13.41;99.87